sensor_id;sensor_type;location;lat;lon;timestamp;P1;durP1;ratioP1;P2;durP2;ratioP2
24557;SDS011;12726;49.148;8.582;2023-12-22T00:01:08;2.47;;;0.80;;
24557;SDS011;12726;49.148;8.582;2023-12-22T00:03:55;1.98;;;0.88;;
24557;SDS011;12726;49.148;8.582;2023-12-22T00:06:41;1.92;;;0.73;;
24557;SDS011;12726;49.148;8.582;2023-12-22T00:09:27;1.88;;;0.70;;
24557;SDS011;12726;49.148;8.582;2023-12-22T00:12:13;2.93;;;0.80;;
24557;SDS011;12726;49.148;8.582;2023-12-22T00:14:58;2.05;;;0.50;;
24557;SDS011;12726;49.148;8.582;2023-12-22T00:17:43;2.75;;;0.63;;
24557;SDS011;12726;49.148;8.582;2023-12-22T00:20:29;1.55;;;0.60;;
24557;SDS011;12726;49.148;8.582;2023-12-22T00:23:14;1.85;;;0.50;;
24557;SDS011;12726;49.148;8.582;2023-12-22T00:26:01;0.68;;;0.45;;
24557;SDS011;12726;49.148;8.582;2023-12-22T00:28:46;3.90;;;0.75;;
24557;SDS011;12726;49.148;8.582;2023-12-22T00:31:31;1.90;;;0.75;;
24557;SDS011;12726;49.148;8.582;2023-12-22T00:34:17;2.65;;;1.05;;
24557;SDS011;12726;49.148;8.582;2023-12-22T00:37:03;1.70;;;0.60;;
24557;SDS011;12726;49.148;8.582;2023-12-22T00:39:49;1.90;;;0.70;;
24557;SDS011;12726;49.148;8.582;2023-12-22T00:42:36;4.25;;;0.80;;
24557;SDS011;12726;49.148;8.582;2023-12-22T00:45:21;1.60;;;0.85;;
24557;SDS011;12726;49.148;8.582;2023-12-22T00:48:06;1.95;;;0.70;;
24557;SDS011;12726;49.148;8.582;2023-12-22T00:50:52;2.00;;;0.70;;
24557;SDS011;12726;49.148;8.582;2023-12-22T00:53:37;2.28;;;0.77;;
24557;SDS011;12726;49.148;8.582;2023-12-22T00:56:23;3.03;;;0.70;;
24557;SDS011;12726;49.148;8.582;2023-12-22T00:59:09;1.73;;;0.70;;
24557;SDS011;12726;49.148;8.582;2023-12-22T01:01:55;4.60;;;0.80;;
24557;SDS011;12726;49.148;8.582;2023-12-22T01:04:40;4.18;;;1.10;;
24557;SDS011;12726;49.148;8.582;2023-12-22T01:07:25;3.25;;;0.80;;
24557;SDS011;12726;49.148;8.582;2023-12-22T01:10:13;3.35;;;0.85;;
24557;SDS011;12726;49.148;8.582;2023-12-22T01:12:58;3.53;;;0.60;;
24557;SDS011;12726;49.148;8.582;2023-12-22T01:15:45;3.63;;;0.80;;
24557;SDS011;12726;49.148;8.582;2023-12-22T01:18:30;4.53;;;1.00;;
24557;SDS011;12726;49.148;8.582;2023-12-22T01:21:18;2.80;;;0.80;;
24557;SDS011;12726;49.148;8.582;2023-12-22T01:24:04;5.20;;;1.05;;
24557;SDS011;12726;49.148;8.582;2023-12-22T01:26:49;4.75;;;1.30;;
24557;SDS011;12726;49.148;8.582;2023-12-22T01:29:35;2.47;;;0.88;;
24557;SDS011;12726;49.148;8.582;2023-12-22T01:32:22;4.55;;;1.17;;
24557;SDS011;12726;49.148;8.582;2023-12-22T01:35:07;7.82;;;1.10;;
24557;SDS011;12726;49.148;8.582;2023-12-22T01:37:53;6.55;;;1.70;;
24557;SDS011;12726;49.148;8.582;2023-12-22T01:40:40;2.80;;;0.82;;
24557;SDS011;12726;49.148;8.582;2023-12-22T01:43:26;4.18;;;1.20;;
24557;SDS011;12726;49.148;8.582;2023-12-22T01:46:11;3.42;;;1.20;;
24557;SDS011;12726;49.148;8.582;2023-12-22T01:48:58;3.17;;;0.80;;
24557;SDS011;12726;49.148;8.582;2023-12-22T01:51:44;2.78;;;0.80;;
24557;SDS011;12726;49.148;8.582;2023-12-22T01:54:30;5.63;;;1.00;;
24557;SDS011;12726;49.148;8.582;2023-12-22T01:57:16;4.85;;;1.00;;
24557;SDS011;12726;49.148;8.582;2023-12-22T02:00:03;4.13;;;1.02;;
24557;SDS011;12726;49.148;8.582;2023-12-22T02:02:49;7.75;;;1.00;;
24557;SDS011;12726;49.148;8.582;2023-12-22T02:05:36;5.13;;;0.85;;
24557;SDS011;12726;49.148;8.582;2023-12-22T02:08:21;6.32;;;0.98;;
24557;SDS011;12726;49.148;8.582;2023-12-22T02:11:09;6.65;;;0.93;;
24557;SDS011;12726;49.148;8.582;2023-12-22T02:13:54;5.85;;;0.60;;
24557;SDS011;12726;49.148;8.582;2023-12-22T02:16:45;3.72;;;1.02;;
24557;SDS011;12726;49.148;8.582;2023-12-22T02:19:39;2.92;;;0.65;;
24557;SDS011;12726;49.148;8.582;2023-12-22T02:22:30;2.40;;;0.70;;
24557;SDS011;12726;49.148;8.582;2023-12-22T02:25:15;2.60;;;1.08;;
24557;SDS011;12726;49.148;8.582;2023-12-22T02:28:01;2.42;;;0.60;;
24557;SDS011;12726;49.148;8.582;2023-12-22T02:30:51;4.55;;;0.85;;
24557;SDS011;12726;49.148;8.582;2023-12-22T02:33:41;4.90;;;1.10;;
24557;SDS011;12726;49.148;8.582;2023-12-22T02:36:27;3.35;;;0.93;;
24557;SDS011;12726;49.148;8.582;2023-12-22T02:39:16;6.68;;;1.30;;
24557;SDS011;12726;49.148;8.582;2023-12-22T02:42:03;4.50;;;0.90;;
24557;SDS011;12726;49.148;8.582;2023-12-22T02:44:50;5.10;;;0.95;;
24557;SDS011;12726;49.148;8.582;2023-12-22T02:47:36;3.97;;;0.88;;
24557;SDS011;12726;49.148;8.582;2023-12-22T02:50:21;3.55;;;1.10;;
24557;SDS011;12726;49.148;8.582;2023-12-22T02:53:08;3.75;;;0.98;;
24557;SDS011;12726;49.148;8.582;2023-12-22T02:55:55;3.50;;;0.90;;
24557;SDS011;12726;49.148;8.582;2023-12-22T02:58:40;3.85;;;0.80;;
24557;SDS011;12726;49.148;8.582;2023-12-22T03:01:29;2.53;;;0.80;;
24557;SDS011;12726;49.148;8.582;2023-12-22T03:04:14;4.50;;;1.17;;
24557;SDS011;12726;49.148;8.582;2023-12-22T03:07:00;3.15;;;0.75;;
24557;SDS011;12726;49.148;8.582;2023-12-22T03:09:45;5.97;;;1.75;;
24557;SDS011;12726;49.148;8.582;2023-12-22T03:12:32;4.80;;;1.10;;
24557;SDS011;12726;49.148;8.582;2023-12-22T03:15:18;4.80;;;1.17;;
24557;SDS011;12726;49.148;8.582;2023-12-22T03:18:03;6.20;;;1.08;;
24557;SDS011;12726;49.148;8.582;2023-12-22T03:20:49;8.80;;;1.30;;
24557;SDS011;12726;49.148;8.582;2023-12-22T03:23:34;6.38;;;1.10;;
24557;SDS011;12726;49.148;8.582;2023-12-22T03:26:19;7.45;;;1.20;;
24557;SDS011;12726;49.148;8.582;2023-12-22T03:29:06;5.15;;;1.90;;
24557;SDS011;12726;49.148;8.582;2023-12-22T03:31:51;3.22;;;0.70;;
24557;SDS011;12726;49.148;8.582;2023-12-22T03:34:37;6.35;;;1.50;;
24557;SDS011;12726;49.148;8.582;2023-12-22T03:37:22;6.45;;;1.15;;
24557;SDS011;12726;49.148;8.582;2023-12-22T03:40:08;8.27;;;1.25;;
24557;SDS011;12726;49.148;8.582;2023-12-22T03:42:54;6.13;;;1.17;;
24557;SDS011;12726;49.148;8.582;2023-12-22T03:45:40;4.25;;;0.95;;
24557;SDS011;12726;49.148;8.582;2023-12-22T03:48:25;5.88;;;0.90;;
24557;SDS011;12726;49.148;8.582;2023-12-22T03:51:11;5.28;;;0.80;;
24557;SDS011;12726;49.148;8.582;2023-12-22T03:53:57;7.47;;;0.90;;
24557;SDS011;12726;49.148;8.582;2023-12-22T03:56:42;3.40;;;1.00;;
24557;SDS011;12726;49.148;8.582;2023-12-22T03:59:27;4.18;;;1.00;;
24557;SDS011;12726;49.148;8.582;2023-12-22T04:02:14;5.68;;;1.40;;
24557;SDS011;12726;49.148;8.582;2023-12-22T04:04:59;7.88;;;1.55;;
24557;SDS011;12726;49.148;8.582;2023-12-22T04:07:45;4.03;;;1.10;;
24557;SDS011;12726;49.148;8.582;2023-12-22T04:10:30;7.97;;;1.95;;
24557;SDS011;12726;49.148;8.582;2023-12-22T04:13:15;5.22;;;1.30;;
24557;SDS011;12726;49.148;8.582;2023-12-22T04:16:00;3.30;;;1.08;;
24557;SDS011;12726;49.148;8.582;2023-12-22T04:18:50;5.15;;;1.38;;
24557;SDS011;12726;49.148;8.582;2023-12-22T04:21:35;7.50;;;1.52;;
24557;SDS011;12726;49.148;8.582;2023-12-22T04:24:38;7.40;;;1.37;;
24557;SDS011;12726;49.148;8.582;2023-12-22T04:27:24;4.88;;;1.70;;
24557;SDS011;12726;49.148;8.582;2023-12-22T04:30:10;4.47;;;0.95;;
24557;SDS011;12726;49.148;8.582;2023-12-22T04:32:55;5.82;;;1.20;;
24557;SDS011;12726;49.148;8.582;2023-12-22T04:35:42;4.63;;;1.55;;
24557;SDS011;12726;49.148;8.582;2023-12-22T04:38:27;5.95;;;1.25;;
24557;SDS011;12726;49.148;8.582;2023-12-22T04:41:12;4.32;;;0.90;;
24557;SDS011;12726;49.148;8.582;2023-12-22T04:43:58;3.72;;;0.90;;
24557;SDS011;12726;49.148;8.582;2023-12-22T04:46:46;2.92;;;1.17;;
24557;SDS011;12726;49.148;8.582;2023-12-22T04:49:31;5.35;;;0.95;;
24557;SDS011;12726;49.148;8.582;2023-12-22T04:52:18;3.35;;;0.85;;
24557;SDS011;12726;49.148;8.582;2023-12-22T04:55:04;3.67;;;1.27;;
24557;SDS011;12726;49.148;8.582;2023-12-22T04:57:49;4.25;;;0.85;;
24557;SDS011;12726;49.148;8.582;2023-12-22T05:00:35;3.53;;;1.13;;
24557;SDS011;12726;49.148;8.582;2023-12-22T05:03:20;3.65;;;0.90;;
24557;SDS011;12726;49.148;8.582;2023-12-22T05:06:05;1.73;;;0.77;;
24557;SDS011;12726;49.148;8.582;2023-12-22T05:08:52;5.15;;;1.23;;
24557;SDS011;12726;49.148;8.582;2023-12-22T05:11:37;6.35;;;1.20;;
24557;SDS011;12726;49.148;8.582;2023-12-22T05:14:23;3.65;;;0.98;;
24557;SDS011;12726;49.148;8.582;2023-12-22T05:17:08;5.28;;;0.98;;
24557;SDS011;12726;49.148;8.582;2023-12-22T05:19:53;7.40;;;1.38;;
24557;SDS011;12726;49.148;8.582;2023-12-22T05:22:39;3.10;;;1.00;;
24557;SDS011;12726;49.148;8.582;2023-12-22T05:25:25;6.35;;;1.20;;
24557;SDS011;12726;49.148;8.582;2023-12-22T05:28:10;7.72;;;1.25;;
24557;SDS011;12726;49.148;8.582;2023-12-22T05:30:56;6.78;;;1.58;;
24557;SDS011;12726;49.148;8.582;2023-12-22T05:33:41;7.53;;;1.60;;
24557;SDS011;12726;49.148;8.582;2023-12-22T05:36:26;7.05;;;1.52;;
24557;SDS011;12726;49.148;8.582;2023-12-22T05:39:11;5.50;;;1.23;;
24557;SDS011;12726;49.148;8.582;2023-12-22T05:41:58;9.27;;;1.42;;
24557;SDS011;12726;49.148;8.582;2023-12-22T05:44:43;10.13;;;1.50;;
24557;SDS011;12726;49.148;8.582;2023-12-22T05:47:33;9.23;;;1.45;;
24557;SDS011;12726;49.148;8.582;2023-12-22T05:50:18;6.40;;;1.80;;
24557;SDS011;12726;49.148;8.582;2023-12-22T05:53:04;8.10;;;1.48;;
24557;SDS011;12726;49.148;8.582;2023-12-22T05:55:51;7.28;;;1.45;;
24557;SDS011;12726;49.148;8.582;2023-12-22T05:58:38;15.10;;;1.45;;
24557;SDS011;12726;49.148;8.582;2023-12-22T06:01:23;9.43;;;1.50;;
24557;SDS011;12726;49.148;8.582;2023-12-22T06:04:09;8.10;;;1.95;;
24557;SDS011;12726;49.148;8.582;2023-12-22T06:06:54;7.72;;;2.05;;
24557;SDS011;12726;49.148;8.582;2023-12-22T06:09:41;7.38;;;1.52;;
24557;SDS011;12726;49.148;8.582;2023-12-22T06:12:26;8.07;;;1.42;;
24557;SDS011;12726;49.148;8.582;2023-12-22T06:15:13;6.03;;;1.42;;
24557;SDS011;12726;49.148;8.582;2023-12-22T06:17:58;9.05;;;1.30;;
24557;SDS011;12726;49.148;8.582;2023-12-22T06:20:43;8.90;;;1.90;;
24557;SDS011;12726;49.148;8.582;2023-12-22T06:23:29;8.10;;;1.98;;
24557;SDS011;12726;49.148;8.582;2023-12-22T06:26:14;9.63;;;2.47;;
24557;SDS011;12726;49.148;8.582;2023-12-22T06:29:00;8.65;;;2.63;;
24557;SDS011;12726;49.148;8.582;2023-12-22T06:31:47;7.95;;;1.58;;
24557;SDS011;12726;49.148;8.582;2023-12-22T06:34:34;4.72;;;1.23;;
24557;SDS011;12726;49.148;8.582;2023-12-22T06:37:19;9.23;;;1.85;;
24557;SDS011;12726;49.148;8.582;2023-12-22T06:40:05;9.27;;;1.80;;
24557;SDS011;12726;49.148;8.582;2023-12-22T06:42:51;5.43;;;1.30;;
24557;SDS011;12726;49.148;8.582;2023-12-22T06:45:36;4.65;;;1.10;;
24557;SDS011;12726;49.148;8.582;2023-12-22T06:48:24;8.35;;;1.40;;
24557;SDS011;12726;49.148;8.582;2023-12-22T06:51:16;4.65;;;1.08;;
24557;SDS011;12726;49.148;8.582;2023-12-22T06:54:03;6.25;;;1.08;;
24557;SDS011;12726;49.148;8.582;2023-12-22T06:56:49;7.22;;;1.95;;
24557;SDS011;12726;49.148;8.582;2023-12-22T06:59:34;5.63;;;1.52;;
24557;SDS011;12726;49.148;8.582;2023-12-22T07:02:19;6.35;;;1.27;;
24557;SDS011;12726;49.148;8.582;2023-12-22T07:08:18;8.32;;;1.45;;
24557;SDS011;12726;49.148;8.582;2023-12-22T07:11:03;6.03;;;1.13;;
24557;SDS011;12726;49.148;8.582;2023-12-22T07:13:48;5.35;;;1.40;;
24557;SDS011;12726;49.148;8.582;2023-12-22T07:16:34;7.25;;;1.73;;
24557;SDS011;12726;49.148;8.582;2023-12-22T07:19:20;6.85;;;1.67;;
24557;SDS011;12726;49.148;8.582;2023-12-22T07:22:07;6.70;;;1.58;;
24557;SDS011;12726;49.148;8.582;2023-12-22T07:24:53;9.25;;;2.65;;
24557;SDS011;12726;49.148;8.582;2023-12-22T07:27:39;8.48;;;2.05;;
24557;SDS011;12726;49.148;8.582;2023-12-22T07:30:24;10.10;;;1.50;;
24557;SDS011;12726;49.148;8.582;2023-12-22T07:33:10;8.27;;;1.55;;
24557;SDS011;12726;49.148;8.582;2023-12-22T07:35:55;5.70;;;1.27;;
24557;SDS011;12726;49.148;8.582;2023-12-22T07:38:42;8.65;;;1.63;;
24557;SDS011;12726;49.148;8.582;2023-12-22T07:41:27;5.50;;;1.35;;
24557;SDS011;12726;49.148;8.582;2023-12-22T07:44:13;9.98;;;2.00;;
24557;SDS011;12726;49.148;8.582;2023-12-22T07:46:59;7.10;;;1.25;;
24557;SDS011;12726;49.148;8.582;2023-12-22T07:49:44;5.53;;;1.70;;
24557;SDS011;12726;49.148;8.582;2023-12-22T07:52:30;7.32;;;1.27;;
24557;SDS011;12726;49.148;8.582;2023-12-22T07:55:16;8.18;;;1.75;;
24557;SDS011;12726;49.148;8.582;2023-12-22T07:58:02;7.88;;;1.67;;
24557;SDS011;12726;49.148;8.582;2023-12-22T08:00:48;9.45;;;1.63;;
24557;SDS011;12726;49.148;8.582;2023-12-22T08:03:33;5.13;;;1.52;;
24557;SDS011;12726;49.148;8.582;2023-12-22T08:06:21;10.23;;;1.73;;
24557;SDS011;12726;49.148;8.582;2023-12-22T08:09:08;8.05;;;1.70;;
24557;SDS011;12726;49.148;8.582;2023-12-22T08:11:54;10.38;;;1.80;;
24557;SDS011;12726;49.148;8.582;2023-12-22T08:14:40;9.70;;;2.08;;
24557;SDS011;12726;49.148;8.582;2023-12-22T08:17:25;9.57;;;1.83;;
24557;SDS011;12726;49.148;8.582;2023-12-22T08:20:11;9.60;;;1.55;;
24557;SDS011;12726;49.148;8.582;2023-12-22T08:23:00;18.33;;;2.85;;
24557;SDS011;12726;49.148;8.582;2023-12-22T08:25:46;8.27;;;1.85;;
24557;SDS011;12726;49.148;8.582;2023-12-22T08:28:33;11.40;;;2.00;;
24557;SDS011;12726;49.148;8.582;2023-12-22T08:31:18;9.70;;;3.35;;
24557;SDS011;12726;49.148;8.582;2023-12-22T08:34:04;12.85;;;3.63;;
24557;SDS011;12726;49.148;8.582;2023-12-22T08:36:50;8.77;;;2.63;;
24557;SDS011;12726;49.148;8.582;2023-12-22T08:39:35;15.80;;;3.30;;
24557;SDS011;12726;49.148;8.582;2023-12-22T08:42:21;10.70;;;2.67;;
24557;SDS011;12726;49.148;8.582;2023-12-22T08:45:08;17.90;;;3.30;;
24557;SDS011;12726;49.148;8.582;2023-12-22T08:47:54;14.18;;;2.67;;
24557;SDS011;12726;49.148;8.582;2023-12-22T08:50:40;11.27;;;2.42;;
24557;SDS011;12726;49.148;8.582;2023-12-22T08:53:25;16.63;;;2.22;;
24557;SDS011;12726;49.148;8.582;2023-12-22T08:56:13;12.43;;;3.33;;
24557;SDS011;12726;49.148;8.582;2023-12-22T08:59:00;13.05;;;3.35;;
24557;SDS011;12726;49.148;8.582;2023-12-22T09:01:47;10.77;;;2.30;;
24557;SDS011;12726;49.148;8.582;2023-12-22T09:04:32;17.40;;;3.25;;
24557;SDS011;12726;49.148;8.582;2023-12-22T09:07:18;16.23;;;2.80;;
24557;SDS011;12726;49.148;8.582;2023-12-22T09:10:04;14.15;;;2.45;;
24557;SDS011;12726;49.148;8.582;2023-12-22T09:12:50;12.98;;;2.53;;
24557;SDS011;12726;49.148;8.582;2023-12-22T09:15:35;16.55;;;3.17;;
24557;SDS011;12726;49.148;8.582;2023-12-22T09:18:22;8.68;;;2.17;;
24557;SDS011;12726;49.148;8.582;2023-12-22T09:21:08;12.90;;;2.30;;
24557;SDS011;12726;49.148;8.582;2023-12-22T09:23:53;15.18;;;2.60;;
24557;SDS011;12726;49.148;8.582;2023-12-22T09:26:39;9.48;;;2.47;;
24557;SDS011;12726;49.148;8.582;2023-12-22T09:29:24;12.88;;;2.83;;
24557;SDS011;12726;49.148;8.582;2023-12-22T09:32:10;13.88;;;2.65;;
24557;SDS011;12726;49.148;8.582;2023-12-22T09:34:57;15.38;;;2.80;;
24557;SDS011;12726;49.148;8.582;2023-12-22T09:37:42;17.58;;;2.30;;
24557;SDS011;12726;49.148;8.582;2023-12-22T09:40:27;16.90;;;2.65;;
24557;SDS011;12726;49.148;8.582;2023-12-22T09:43:14;10.18;;;3.03;;
24557;SDS011;12726;49.148;8.582;2023-12-22T09:46:02;12.60;;;2.22;;
24557;SDS011;12726;49.148;8.582;2023-12-22T09:48:49;14.80;;;3.00;;
24557;SDS011;12726;49.148;8.582;2023-12-22T09:51:37;11.70;;;2.53;;
24557;SDS011;12726;49.148;8.582;2023-12-22T09:54:22;16.38;;;3.20;;
24557;SDS011;12726;49.148;8.582;2023-12-22T09:57:09;13.55;;;2.78;;
24557;SDS011;12726;49.148;8.582;2023-12-22T09:59:55;9.38;;;2.03;;
24557;SDS011;12726;49.148;8.582;2023-12-22T10:02:42;13.85;;;2.60;;
24557;SDS011;12726;49.148;8.582;2023-12-22T10:05:29;17.52;;;2.70;;
24557;SDS011;12726;49.148;8.582;2023-12-22T10:08:15;12.27;;;2.38;;
24557;SDS011;12726;49.148;8.582;2023-12-22T10:11:03;16.27;;;2.38;;
24557;SDS011;12726;49.148;8.582;2023-12-22T10:13:49;9.98;;;2.25;;
24557;SDS011;12726;49.148;8.582;2023-12-22T10:16:37;12.35;;;2.33;;
24557;SDS011;12726;49.148;8.582;2023-12-22T10:19:23;14.43;;;2.38;;
24557;SDS011;12726;49.148;8.582;2023-12-22T10:22:14;15.20;;;3.35;;
24557;SDS011;12726;49.148;8.582;2023-12-22T10:25:09;17.08;;;2.90;;
24557;SDS011;12726;49.148;8.582;2023-12-22T10:27:55;14.35;;;3.17;;
24557;SDS011;12726;49.148;8.582;2023-12-22T10:30:40;13.30;;;2.17;;
24557;SDS011;12726;49.148;8.582;2023-12-22T10:33:29;10.57;;;1.92;;
24557;SDS011;12726;49.148;8.582;2023-12-22T10:36:14;12.32;;;2.03;;
24557;SDS011;12726;49.148;8.582;2023-12-22T10:39:00;10.43;;;2.72;;
24557;SDS011;12726;49.148;8.582;2023-12-22T10:41:49;13.23;;;2.80;;
24557;SDS011;12726;49.148;8.582;2023-12-22T10:44:34;16.92;;;3.72;;
24557;SDS011;12726;49.148;8.582;2023-12-22T10:47:20;12.27;;;2.88;;
24557;SDS011;12726;49.148;8.582;2023-12-22T10:50:08;13.75;;;2.50;;
24557;SDS011;12726;49.148;8.582;2023-12-22T10:52:56;12.68;;;2.40;;
24557;SDS011;12726;49.148;8.582;2023-12-22T10:55:42;14.30;;;3.33;;
24557;SDS011;12726;49.148;8.582;2023-12-22T10:58:29;16.45;;;3.03;;
24557;SDS011;12726;49.148;8.582;2023-12-22T11:01:15;13.90;;;2.33;;
24557;SDS011;12726;49.148;8.582;2023-12-22T11:04:06;16.60;;;2.92;;
24557;SDS011;12726;49.148;8.582;2023-12-22T11:06:53;9.02;;;2.17;;
24557;SDS011;12726;49.148;8.582;2023-12-22T11:09:42;14.43;;;2.83;;
24557;SDS011;12726;49.148;8.582;2023-12-22T11:12:34;14.43;;;2.30;;
24557;SDS011;12726;49.148;8.582;2023-12-22T11:15:22;11.02;;;2.90;;
24557;SDS011;12726;49.148;8.582;2023-12-22T11:18:10;14.48;;;2.13;;
24557;SDS011;12726;49.148;8.582;2023-12-22T11:20:56;10.15;;;2.55;;
24557;SDS011;12726;49.148;8.582;2023-12-22T11:23:42;14.40;;;3.00;;
24557;SDS011;12726;49.148;8.582;2023-12-22T11:26:30;17.67;;;3.10;;
24557;SDS011;12726;49.148;8.582;2023-12-22T11:29:17;9.98;;;2.40;;
24557;SDS011;12726;49.148;8.582;2023-12-22T11:32:05;11.00;;;2.25;;
24557;SDS011;12726;49.148;8.582;2023-12-22T11:34:52;12.50;;;2.47;;
24557;SDS011;12726;49.148;8.582;2023-12-22T11:37:39;14.77;;;3.45;;
24557;SDS011;12726;49.148;8.582;2023-12-22T11:40:27;10.65;;;1.88;;
24557;SDS011;12726;49.148;8.582;2023-12-22T11:43:12;7.00;;;1.50;;
24557;SDS011;12726;49.148;8.582;2023-12-22T11:46:00;10.60;;;2.65;;
24557;SDS011;12726;49.148;8.582;2023-12-22T11:48:48;7.55;;;1.90;;
24557;SDS011;12726;49.148;8.582;2023-12-22T11:51:34;9.55;;;2.05;;
24557;SDS011;12726;49.148;8.582;2023-12-22T11:57:34;9.35;;;1.90;;
24557;SDS011;12726;49.148;8.582;2023-12-22T12:06:12;9.57;;;1.45;;
24557;SDS011;12726;49.148;8.582;2023-12-22T12:09:00;6.43;;;1.33;;
24557;SDS011;12726;49.148;8.582;2023-12-22T12:14:57;6.78;;;1.67;;
24557;SDS011;12726;49.148;8.582;2023-12-22T12:17:51;5.78;;;1.23;;
24557;SDS011;12726;49.148;8.582;2023-12-22T12:20:38;5.78;;;1.00;;
24557;SDS011;12726;49.148;8.582;2023-12-22T12:23:26;4.00;;;1.00;;
24557;SDS011;12726;49.148;8.582;2023-12-22T12:26:12;5.15;;;1.50;;
24557;SDS011;12726;49.148;8.582;2023-12-22T12:28:57;5.82;;;1.05;;
24557;SDS011;12726;49.148;8.582;2023-12-22T12:31:43;2.42;;;0.70;;
24557;SDS011;12726;49.148;8.582;2023-12-22T12:34:28;3.97;;;0.90;;
24557;SDS011;12726;49.148;8.582;2023-12-22T12:37:14;2.78;;;1.00;;
24557;SDS011;12726;49.148;8.582;2023-12-22T12:40:02;4.05;;;0.98;;
24557;SDS011;12726;49.148;8.582;2023-12-22T12:42:48;4.85;;;0.98;;
24557;SDS011;12726;49.148;8.582;2023-12-22T12:45:35;3.97;;;0.80;;
24557;SDS011;12726;49.148;8.582;2023-12-22T12:48:20;2.83;;;0.82;;
24557;SDS011;12726;49.148;8.582;2023-12-22T12:51:06;3.63;;;0.93;;
24557;SDS011;12726;49.148;8.582;2023-12-22T12:53:52;5.00;;;1.10;;
24557;SDS011;12726;49.148;8.582;2023-12-22T12:56:39;3.03;;;0.90;;
24557;SDS011;12726;49.148;8.582;2023-12-22T12:59:25;3.72;;;0.90;;
24557;SDS011;12726;49.148;8.582;2023-12-22T13:02:10;3.72;;;1.05;;
24557;SDS011;12726;49.148;8.582;2023-12-22T13:04:56;2.30;;;0.80;;
24557;SDS011;12726;49.148;8.582;2023-12-22T13:07:41;2.15;;;0.82;;
24557;SDS011;12726;49.148;8.582;2023-12-22T13:10:27;2.13;;;0.98;;
24557;SDS011;12726;49.148;8.582;2023-12-22T13:13:14;2.75;;;1.20;;
24557;SDS011;12726;49.148;8.582;2023-12-22T13:16:00;4.60;;;1.00;;
24557;SDS011;12726;49.148;8.582;2023-12-22T13:18:46;1.48;;;0.65;;
24557;SDS011;12726;49.148;8.582;2023-12-22T13:21:31;1.55;;;0.98;;
24557;SDS011;12726;49.148;8.582;2023-12-22T13:24:17;2.75;;;0.70;;
24557;SDS011;12726;49.148;8.582;2023-12-22T13:27:03;1.60;;;0.65;;
24557;SDS011;12726;49.148;8.582;2023-12-22T13:29:51;1.92;;;0.68;;
24557;SDS011;12726;49.148;8.582;2023-12-22T13:32:37;2.50;;;0.50;;
24557;SDS011;12726;49.148;8.582;2023-12-22T13:35:23;1.35;;;0.70;;
24557;SDS011;12726;49.148;8.582;2023-12-22T13:38:09;2.15;;;0.60;;
24557;SDS011;12726;49.148;8.582;2023-12-22T13:40:55;3.65;;;1.00;;
24557;SDS011;12726;49.148;8.582;2023-12-22T13:43:40;0.73;;;0.57;;
24557;SDS011;12726;49.148;8.582;2023-12-22T13:46:29;1.30;;;0.60;;
24557;SDS011;12726;49.148;8.582;2023-12-22T13:49:15;4.32;;;0.80;;
24557;SDS011;12726;49.148;8.582;2023-12-22T13:52:01;1.60;;;0.68;;
24557;SDS011;12726;49.148;8.582;2023-12-22T13:54:50;1.52;;;0.82;;
24557;SDS011;12726;49.148;8.582;2023-12-22T13:57:35;1.65;;;0.90;;
24557;SDS011;12726;49.148;8.582;2023-12-22T14:00:24;0.68;;;0.60;;
24557;SDS011;12726;49.148;8.582;2023-12-22T14:03:11;1.10;;;0.60;;
24557;SDS011;12726;49.148;8.582;2023-12-22T14:05:56;1.17;;;0.50;;
24557;SDS011;12726;49.148;8.582;2023-12-22T14:08:42;1.02;;;0.47;;
24557;SDS011;12726;49.148;8.582;2023-12-22T14:11:27;1.65;;;0.88;;
24557;SDS011;12726;49.148;8.582;2023-12-22T14:14:13;0.95;;;0.60;;
24557;SDS011;12726;49.148;8.582;2023-12-22T14:17:00;0.80;;;0.40;;
24557;SDS011;12726;49.148;8.582;2023-12-22T14:19:47;1.38;;;0.45;;
24557;SDS011;12726;49.148;8.582;2023-12-22T14:22:32;1.38;;;0.57;;
24557;SDS011;12726;49.148;8.582;2023-12-22T14:25:18;0.47;;;0.40;;
24557;SDS011;12726;49.148;8.582;2023-12-22T14:28:04;1.17;;;0.75;;
24557;SDS011;12726;49.148;8.582;2023-12-22T14:30:49;2.92;;;0.65;;
24557;SDS011;12726;49.148;8.582;2023-12-22T14:33:34;0.63;;;0.50;;
24557;SDS011;12726;49.148;8.582;2023-12-22T14:36:21;1.52;;;1.00;;
24557;SDS011;12726;49.148;8.582;2023-12-22T14:39:06;2.28;;;0.60;;
24557;SDS011;12726;49.148;8.582;2023-12-22T14:41:54;1.25;;;0.55;;
24557;SDS011;12726;49.148;8.582;2023-12-22T14:44:39;0.45;;;0.45;;
24557;SDS011;12726;49.148;8.582;2023-12-22T14:47:24;1.73;;;0.60;;
24557;SDS011;12726;49.148;8.582;2023-12-22T14:50:10;0.95;;;0.50;;
24557;SDS011;12726;49.148;8.582;2023-12-22T14:52:57;1.13;;;0.45;;
24557;SDS011;12726;49.148;8.582;2023-12-22T14:55:42;0.30;;;0.30;;
24557;SDS011;12726;49.148;8.582;2023-12-22T14:58:28;2.25;;;0.65;;
24557;SDS011;12726;49.148;8.582;2023-12-22T15:01:14;2.25;;;0.85;;
24557;SDS011;12726;49.148;8.582;2023-12-22T15:03:59;0.80;;;0.52;;
24557;SDS011;12726;49.148;8.582;2023-12-22T15:06:45;0.90;;;0.45;;
24557;SDS011;12726;49.148;8.582;2023-12-22T15:09:31;1.88;;;0.50;;
24557;SDS011;12726;49.148;8.582;2023-12-22T15:12:18;0.40;;;0.40;;
24557;SDS011;12726;49.148;8.582;2023-12-22T15:15:03;2.30;;;0.40;;
24557;SDS011;12726;49.148;8.582;2023-12-22T15:17:49;1.25;;;0.50;;
24557;SDS011;12726;49.148;8.582;2023-12-22T15:20:35;0.88;;;0.50;;
24557;SDS011;12726;49.148;8.582;2023-12-22T15:23:20;0.32;;;0.30;;
24557;SDS011;12726;49.148;8.582;2023-12-22T15:26:07;1.30;;;0.52;;
24557;SDS011;12726;49.148;8.582;2023-12-22T15:28:52;0.35;;;0.35;;
24557;SDS011;12726;49.148;8.582;2023-12-22T15:31:37;2.40;;;0.43;;
24557;SDS011;12726;49.148;8.582;2023-12-22T15:34:22;1.10;;;0.50;;
24557;SDS011;12726;49.148;8.582;2023-12-22T15:37:08;0.68;;;0.35;;
24557;SDS011;12726;49.148;8.582;2023-12-22T15:39:54;1.55;;;0.60;;
24557;SDS011;12726;49.148;8.582;2023-12-22T15:42:40;1.40;;;0.60;;
24557;SDS011;12726;49.148;8.582;2023-12-22T15:45:26;0.90;;;0.50;;
24557;SDS011;12726;49.148;8.582;2023-12-22T15:48:11;1.67;;;0.50;;
24557;SDS011;12726;49.148;8.582;2023-12-22T15:50:59;0.90;;;0.60;;
24557;SDS011;12726;49.148;8.582;2023-12-22T15:53:50;0.98;;;0.40;;
24557;SDS011;12726;49.148;8.582;2023-12-22T15:56:35;1.35;;;0.40;;
24557;SDS011;12726;49.148;8.582;2023-12-22T15:59:22;1.05;;;0.50;;
24557;SDS011;12726;49.148;8.582;2023-12-22T16:02:09;0.90;;;0.47;;
24557;SDS011;12726;49.148;8.582;2023-12-22T16:04:55;0.80;;;0.40;;
24557;SDS011;12726;49.148;8.582;2023-12-22T16:07:40;1.15;;;0.40;;
24557;SDS011;12726;49.148;8.582;2023-12-22T16:10:25;0.60;;;0.40;;
24557;SDS011;12726;49.148;8.582;2023-12-22T16:13:11;1.80;;;0.50;;
24557;SDS011;12726;49.148;8.582;2023-12-22T16:15:58;0.63;;;0.40;;
24557;SDS011;12726;49.148;8.582;2023-12-22T16:18:44;2.45;;;0.50;;
24557;SDS011;12726;49.148;8.582;2023-12-22T16:21:29;0.32;;;0.30;;
24557;SDS011;12726;49.148;8.582;2023-12-22T16:24:14;1.52;;;0.55;;
24557;SDS011;12726;49.148;8.582;2023-12-22T16:26:59;0.85;;;0.65;;
24557;SDS011;12726;49.148;8.582;2023-12-22T16:29:45;1.85;;;0.73;;
24557;SDS011;12726;49.148;8.582;2023-12-22T16:32:32;1.45;;;0.80;;
24557;SDS011;12726;49.148;8.582;2023-12-22T16:35:17;2.65;;;1.00;;
24557;SDS011;12726;49.148;8.582;2023-12-22T16:38:02;2.40;;;1.13;;
24557;SDS011;12726;49.148;8.582;2023-12-22T16:40:48;1.02;;;0.70;;
24557;SDS011;12726;49.148;8.582;2023-12-22T16:43:34;1.83;;;0.98;;
24557;SDS011;12726;49.148;8.582;2023-12-22T16:46:19;1.77;;;1.00;;
24557;SDS011;12726;49.148;8.582;2023-12-22T16:49:06;3.10;;;0.95;;
24557;SDS011;12726;49.148;8.582;2023-12-22T16:51:51;0.88;;;0.60;;
24557;SDS011;12726;49.148;8.582;2023-12-22T16:54:36;1.25;;;0.65;;